Johnstone Strait: Past 24 Hour Conditions

 

Sentry Shoal - 46131

12:00 AM PST 22 January 2019Buoy position: 49.92N 125.0W
Disclaimer

This table is a summary of hourly weather conditions for the past 24 hours.
Please note that these observations might not always be representative of weather conditions over their associated marine area.

Date / Time
(PST)
Wind(knots) Wave height(m) Wave period(s) Pressure(kPa) Air tempC) Water tempC)
22 January 2019
0:00 ESE 21 gust 25 1.3 4.0 102.5 7 8
21 January 2019
23:00 ESE 23 gust 27 1.2 5.0 102.6 7 8
22:00 E 23 gust 27 1.1 5.0 102.6 7 8
21:00 E 19 gust 23 1.0 4.0 102.7 7 8
20:00 ESE 19 gust 23 0.7 4.0 102.7 7 8
19:00 ESE 16 gust 19 0.5 3.0 102.7 6 8
18:00 ESE 16 gust 18 0.4 3.0 102.7 6 8
17:00 ESE 12 gust 16 0.2 2.0 102.7 7 8
16:00 ESE 10 gust 12 0.1 2.0 102.7 6 8
15:00 SE 8 gust 10 0.1 2.0 102.7 6 8
14:00 E 8 gust 8 0.1 2.0 102.6 5 8
13:00 E 4 gust 6 0.1 2.0 102.7 6 8
12:00 E 4 gust 6 0.1 2.0 102.7 6 8
11:00 ESE 4 gust 6 0.1 2.0 102.7 5 8
10:00 NE 4 gust 6 0.1 2.0 102.6 5 8
9:00 N 4 gust 6 0.1 2.0 102.4 5 8
8:00 N 6 gust 8 0.1 2.0 102.3 5 8
7:00 WNW 6 gust 8 0.1 2.0 102.2 5 8
6:00 N 4 gust 6 0.2 2.0 102.1 5 8
5:00 WNW 10 gust 12 0.2 2.0 102.1 5 8
4:00 NW 10 gust 12 0.2 2.0 102.0 6 8
3:00 NW 10 gust 12 0.2 2.0 101.9 6 8
2:00 WNW 10 gust 12 0.2 2.0 101.9 6 8
1:00 WNW 12 gust 14 0.2 2.0 101.8 6 8
0:00 WNW 12 gust 14 0.2 2.0 101.8 6 8

Zoom-in to make a selection

Map of Pacific - South Coast marine weather areas South Nomad - 46036 Sentry Shoal - 46131 South Brooks - 46132 Halibut Bank - 46146 South Moresby - 46147 South Hecate Strait - 46185 West Sea Otter - 46204 La Perouse Bank - 46206 East Dellwood - 46207 Discovery Island Esquimalt Harbour Kelp Reefs Malahat Race Rocks Lightstation Saturna Island Sheringham Point University of Victoria Victoria Gonzales Victoria Int'l Airport Ballenas Islands Campbell River Airport Comox Airport Entrance Island Fanny Island Nanaimo Airport Port Hardy Airport Sisters Islets Estevan Point Port Alberni Sartine Island Solander Island Tofino Airport Grief Point Howe Sound - Pam Rocks Powell River Airport Sechelt Squamish Airport Cape St.James Bella Bella Airport Bella Coola Airport Cathedral Point Herbert Island Point Atkinson Sand Heads Lightstation Tsawwassen Ferry Terminal Vancouver Int'l Airport Vancouver Harbour West Vancouver
Legend:
buoy Buoy
land station Land Station

Pacific - South Coast Area

Another Region

What we are doing

Date modified: